Time;durP1;ratioP1;P1;durP2;ratioP2;P2;SDS_P1;SDS_P2;PMS_P1;PMS_P2;Temp;Humidity;BMP_temperature;BMP_pressure;BME280_temperature;BME280_humidity;BME280_pressure;Samples;Min_cycle;Max_cycle;Signal;HPM_P1;HPM_P2
2022/03/28 00:00:06;;;;;;;;;;;;;;;21.64;41.81;102545.13;7276541;19;152611;-56
2022/03/28 00:02:33;;;;;;;;;;;;;;;21.63;41.92;102537.78;7278976;19;152739;-56
2022/03/28 00:05:00;;;;;;;;;;;;;;;21.63;42.54;102542.56;7274473;19;153995;-55
2022/03/28 00:07:27;;;;;;;;;;;;;;;21.62;42.32;102538.09;7278663;19;151922;-56
2022/03/28 00:09:53;;;;;;;;;;;;;;;21.62;42.38;102536.09;7276726;19;153110;-56
2022/03/28 00:12:20;;;;;;;;;;;;;;;21.59;42.64;102524.56;7281992;19;153198;-56
2022/03/28 00:14:47;;;;;;;;;;;;;;;21.60;42.25;102518.66;7276026;19;154001;-56
2022/03/28 00:17:14;;;;;;;;;;;;;;;21.59;42.33;102525.41;7274839;19;153937;-56
2022/03/28 00:19:41;;;;;;;;;;;;;;;21.59;42.44;102528.22;7276139;19;151835;-57
2022/03/28 00:22:08;;;;;;;;;;;;;;;21.60;42.43;102529.91;7276663;19;153528;-57
2022/03/28 00:24:35;;;;;;;;;;;;;;;21.61;42.63;102528.81;7275893;19;153731;-56
2022/03/28 00:27:02;;;;;;;;;;;;;;;21.58;42.91;102525.66;7278506;19;152395;-57
2022/03/28 00:29:28;;;;;;;;;;;;;;;21.58;42.69;102520.91;7277504;19;154179;-56
2022/03/28 00:31:55;;;;;;;;;;;;;;;21.58;42.72;102522.84;7279394;19;152716;-56
2022/03/28 00:34:23;;;;;;;;;;;;;;;21.56;42.80;102514.72;7275464;19;152776;-57
2022/03/28 00:36:50;;;;;;;;;;;;;;;21.58;42.71;102517.22;7275584;19;153147;-56
2022/03/28 00:39:19;;;;;;;;;;;;;;;21.54;42.91;102514.13;7274977;19;152276;-57
2022/03/28 00:41:47;;;;;;;;;;;;;;;21.55;43.04;102512.19;7274637;19;152569;-56
2022/03/28 00:44:14;;;;;;;;;;;;;;;21.52;43.00;102524.84;7273970;19;153352;-56
2022/03/28 00:46:41;;;;;;;;;;;;;;;21.51;42.78;102517.50;7275673;19;151913;-56
2022/03/28 00:49:11;;;;;;;;;;;;;;;21.51;42.83;102508.22;7275562;19;153345;-56
2022/03/28 00:51:38;;;;;;;;;;;;;;;21.49;43.10;102505.69;7272239;19;152208;-56
2022/03/28 00:54:05;;;;;;;;;;;;;;;21.48;43.12;102505.97;7283150;19;152463;-56
2022/03/28 00:56:32;;;;;;;;;;;;;;;21.48;43.13;102505.97;7273857;19;153390;-55
2022/03/28 00:58:59;;;;;;;;;;;;;;;21.46;43.04;102495.00;7275713;19;151760;-55
2022/03/28 01:01:26;;;;;;;;;;;;;;;21.45;43.16;102492.44;7277325;19;153619;-56
2022/03/28 01:03:53;;;;;;;;;;;;;;;21.44;43.40;102488.78;7273454;19;153903;-55
2022/03/28 01:06:20;;;;;;;;;;;;;;;21.42;43.39;102485.44;7275517;19;152076;-56
2022/03/28 01:08:48;;;;;;;;;;;;;;;21.43;43.01;102489.09;7274418;19;153001;-55
2022/03/28 01:11:15;;;;;;;;;;;;;;;21.41;43.12;102491.31;7272901;19;153365;-55
2022/03/28 01:13:42;;;;;;;;;;;;;;;21.41;43.03;102496.94;7270628;19;152352;-56
2022/03/28 01:16:10;;;;;;;;;;;;;;;21.37;43.10;102485.41;7280163;19;153727;-55
2022/03/28 01:18:47;;;;;;;;;;;;;;;21.34;42.94;102488.78;7274671;19;152153;-56
2022/03/28 01:21:14;;;;;;;;;;;;;;;21.37;42.88;102484.56;7274827;19;154149;-56
2022/03/28 01:23:42;;;;;;;;;;;;;;;21.35;43.15;102484.00;7271956;19;153234;-56
2022/03/28 01:26:09;;;;;;;;;;;;;;;21.34;43.51;102476.69;7275787;19;151948;-56
2022/03/28 01:28:36;;;;;;;;;;;;;;;21.32;43.35;102471.34;7274948;19;152660;-56
2022/03/28 01:31:03;;;;;;;;;;;;;;;21.31;43.28;102464.00;7272142;19;153896;-56
2022/03/28 01:33:29;;;;;;;;;;;;;;;21.28;43.26;102462.63;7281642;19;152140;-56
2022/03/28 01:35:57;;;;;;;;;;;;;;;21.26;43.46;102453.59;7282211;19;153281;-56
2022/03/28 01:38:24;;;;;;;;;;;;;;;21.26;43.57;102453.59;7287099;19;153586;-56
2022/03/28 01:40:51;;;;;;;;;;;;;;;21.24;43.45;102453.06;7280400;19;152517;-56
2022/03/28 01:43:19;;;;;;;;;;;;;;;21.22;43.30;102454.44;7278949;19;153989;-56
2022/03/28 01:45:46;;;;;;;;;;;;;;;21.21;43.33;102450.78;7279723;19;151963;-56
2022/03/28 01:48:14;;;;;;;;;;;;;;;21.20;43.20;102443.50;7280022;19;152856;-56
2022/03/28 01:50:43;;;;;;;;;;;;;;;21.18;43.55;102448.53;7280469;19;154139;-56
2022/03/28 01:53:10;;;;;;;;;;;;;;;21.17;43.48;102446.84;7279228;19;151788;-56
2022/03/28 01:55:38;;;;;;;;;;;;;;;21.15;43.36;102449.09;7279575;19;154135;-56
2022/03/28 01:58:06;;;;;;;;;;;;;;;21.15;43.21;102445.44;7279428;19;153606;-56
2022/03/28 02:00:32;;;;;;;;;;;;;;;21.15;43.65;102440.66;7289306;19;151922;-56
2022/03/28 02:03:00;;;;;;;;;;;;;;;21.13;43.25;102430.78;7278557;19;153717;-56
2022/03/28 02:05:27;;;;;;;;;;;;;;;21.12;43.45;102435.53;7280259;19;152183;-56
2022/03/28 02:07:53;;;;;;;;;;;;;;;21.10;43.45;102431.31;7281235;19;152633;-56
2022/03/28 02:10:20;;;;;;;;;;;;;;;21.10;43.74;102431.31;7280459;19;154347;-56
2022/03/28 02:12:47;;;;;;;;;;;;;;;21.09;43.54;102426.81;7278513;19;153052;-56
2022/03/28 02:15:15;;;;;;;;;;;;;;;21.08;43.49;102430.75;7279465;19;153312;-56
2022/03/28 02:17:42;;;;;;;;;;;;;;;21.07;43.48;102427.13;7278021;19;154234;-55
2022/03/28 02:20:09;;;;;;;;;;;;;;;21.05;43.73;102428.50;7279558;19;152375;-55
2022/03/28 02:22:37;;;;;;;;;;;;;;;21.04;43.88;102429.59;7284040;19;153365;-55
2022/03/28 02:25:05;;;;;;;;;;;;;;;21.02;43.67;102415.00;7281075;19;152039;-55
2022/03/28 02:27:32;;;;;;;;;;;;;;;21.03;44.03;102419.50;7277761;19;153651;-55
2022/03/28 02:29:59;;;;;;;;;;;;;;;21.02;44.02;102423.44;7276448;19;153929;-55
2022/03/28 02:32:26;;;;;;;;;;;;;;;21.01;43.82;102413.31;7277053;19;151877;-55
2022/03/28 02:34:52;;;;;;;;;;;;;;;21.00;43.90;102406.00;7277684;19;153434;-55
2022/03/28 02:37:19;;;;;;;;;;;;;;;20.98;43.97;102408.25;7277188;19;153968;-55
2022/03/28 02:39:46;;;;;;;;;;;;;;;20.97;43.96;102410.22;7277964;19;152464;-55
2022/03/28 02:42:14;;;;;;;;;;;;;;;20.95;44.22;102412.44;7286503;19;153882;-55
2022/03/28 02:44:41;;;;;;;;;;;;;;;20.94;44.29;102409.94;7275660;19;152048;-55
2022/03/28 02:47:07;;;;;;;;;;;;;;;20.94;43.84;102409.94;7280493;19;153290;-56
2022/03/28 02:49:34;;;;;;;;;;;;;;;20.92;44.18;102400.91;7277338;19;153194;-55
2022/03/28 02:52:01;;;;;;;;;;;;;;;20.90;44.14;102404.00;7276396;19;151868;-55
2022/03/28 02:54:27;;;;;;;;;;;;;;;20.89;44.26;102402.31;7280405;19;153442;-56
2022/03/28 02:56:54;;;;;;;;;;;;;;;20.89;43.91;102387.44;7276429;19;153793;-55
2022/03/28 02:59:21;;;;;;;;;;;;;;;20.84;43.85;102391.91;7277473;19;152133;-55
2022/03/28 03:01:48;;;;;;;;;;;;;;;20.84;43.88;102386.28;7279673;19;152659;-55
2022/03/28 03:04:15;;;;;;;;;;;;;;;20.84;44.28;102388.25;7284014;19;154205;-55
2022/03/28 03:06:42;;;;;;;;;;;;;;;20.84;43.78;102386.28;7279419;19;153430;-55
2022/03/28 03:09:09;;;;;;;;;;;;;;;20.79;44.20;102385.44;7276486;19;153961;-55
2022/03/28 03:11:35;;;;;;;;;;;;;;;20.78;43.78;102381.75;7274714;19;151818;-55
2022/03/28 03:14:03;;;;;;;;;;;;;;;20.76;44.19;102378.38;7279142;19;153433;-55
2022/03/28 03:16:30;;;;;;;;;;;;;;;20.76;44.04;102380.34;7277393;19;153241;-55
2022/03/28 03:18:57;;;;;;;;;;;;;;;20.78;44.18;102380.91;7279366;19;152037;-55
2022/03/28 03:21:23;;;;;;;;;;;;;;;20.73;44.42;102361.22;7276466;19;153121;-55
2022/03/28 03:23:50;;;;;;;;;;;;;;;20.74;44.39;102360.97;7279279;19;154511;-58
2022/03/28 03:26:17;;;;;;;;;;;;;;;20.72;43.98;102362.34;7284170;19;151965;-57
2022/03/28 03:28:44;;;;;;;;;;;;;;;20.73;44.00;102356.47;7278412;19;154120;-57
2022/03/28 03:31:10;;;;;;;;;;;;;;;20.71;44.17;102358.72;7276303;19;152530;-57
2022/03/28 03:33:37;;;;;;;;;;;;;;;20.71;44.09;102357.88;7276966;19;153494;-57
2022/03/28 03:36:04;;;;;;;;;;;;;;;20.68;44.24;102358.41;7275415;19;153995;-57
2022/03/28 03:38:31;;;;;;;;;;;;;;;20.67;44.34;102360.38;7278606;19;151993;-57
2022/03/28 03:40:57;;;;;;;;;;;;;;;20.67;44.25;102362.34;7278616;19;153073;-58
2022/03/28 03:43:25;;;;;;;;;;;;;;;20.60;44.30;102356.13;7277958;19;153622;-58
2022/03/28 03:45:52;;;;;;;;;;;;;;;20.60;44.68;102358.94;7279168;19;152365;-58
2022/03/28 03:48:19;;;;;;;;;;;;;;;20.58;44.53;102356.41;7284537;19;151923;-58
2022/03/28 03:50:46;;;;;;;;;;;;;;;20.54;44.82;102341.22;7279067;19;151837;-58
2022/03/28 03:53:13;;;;;;;;;;;;;;;20.56;44.72;102340.97;7275967;19;153565;-59
2022/03/28 03:55:40;;;;;;;;;;;;;;;20.54;44.54;102338.41;7276818;19;153279;-59
2022/03/28 03:58:06;;;;;;;;;;;;;;;20.52;44.88;102339.81;7276130;19;151962;-59
2022/03/28 04:00:34;;;;;;;;;;;;;;;20.51;44.53;102336.16;7276547;19;153975;-59
2022/03/28 04:03:00;;;;;;;;;;;;;;;20.48;44.86;102339.53;7276102;19;153942;-58
2022/03/28 04:05:27;;;;;;;;;;;;;;;20.50;44.70;102334.47;7276615;19;151672;-58
2022/03/28 04:07:54;;;;;;;;;;;;;;;20.48;44.56;102333.06;7279118;19;153069;-58
2022/03/28 04:10:22;;;;;;;;;;;;;;;20.46;44.96;102326.88;7284259;19;153929;-58
2022/03/28 04:12:49;;;;;;;;;;;;;;;20.47;44.97;102335.03;7273331;19;152645;-58
2022/03/28 04:15:18;;;;;;;;;;;;;;;20.44;44.54;102335.59;7276974;19;153944;-58
2022/03/28 04:17:45;;;;;;;;;;;;;;;20.46;44.73;102335.28;7278660;19;152247;-58
2022/03/28 04:20:13;;;;;;;;;;;;;;;20.44;44.59;102329.13;7275248;19;152616;-58
2022/03/28 04:22:40;;;;;;;;;;;;;;;20.45;44.77;102336.41;7276198;19;153950;-58
2022/03/28 04:25:09;;;;;;;;;;;;;;;20.50;45.05;102337.28;7275322;19;151959;-58
2022/03/28 04:27:36;;;;;;;;;;;;;;;20.51;44.59;102333.34;7276180;19;152765;-58
2022/03/28 04:30:04;;;;;;;;;;;;;;;20.54;45.15;102327.19;7273663;19;153992;-58
2022/03/28 04:32:31;;;;;;;;;;;;;;;20.59;45.47;102331.97;7282724;19;152080;-58
2022/03/28 04:34:58;;;;;;;;;;;;;;;20.66;44.75;102332.56;7274850;19;153420;-58
2022/03/28 04:37:24;;;;;;;;;;;;;;;20.69;45.60;102330.06;7275572;19;152302;-58
2022/03/28 04:39:51;;;;;;;;;;;;;;;20.74;44.95;102318.84;7276459;19;152852;-58
2022/03/28 04:42:18;;;;;;;;;;;;;;;20.81;45.43;102322.22;7274099;19;154226;-58
2022/03/28 04:44:44;;;;;;;;;;;;;;;20.87;45.38;102323.06;7276973;19;151741;-58
2022/03/28 04:47:11;;;;;;;;;;;;;;;20.95;45.62;102316.91;7277660;19;152385;-58
2022/03/28 04:49:38;;;;;;;;;;;;;;;21.04;45.51;102325.63;7276132;19;153889;-58
2022/03/28 04:52:05;;;;;;;;;;;;;;;21.11;45.23;102320.59;7283967;19;152078;-57
2022/03/28 04:54:31;;;;;;;;;;;;;;;21.17;45.18;102322.31;7273085;19;153829;-57
2022/03/28 04:56:58;;;;;;;;;;;;;;;21.24;45.09;102315.31;7275193;19;151667;-58
2022/03/28 04:59:25;;;;;;;;;;;;;;;21.32;45.39;102321.47;7274129;19;153732;-58
2022/03/28 05:01:51;;;;;;;;;;;;;;;21.39;45.52;102322.91;7275231;19;153623;-58
2022/03/28 05:04:18;;;;;;;;;;;;;;;21.45;45.03;102313.34;7276486;19;151954;-58
2022/03/28 05:06:45;;;;;;;;;;;;;;;21.50;44.76;102313.34;7278615;19;152730;-58
2022/03/28 05:09:12;;;;;;;;;;;;;;;21.57;44.82;102315.88;7281279;19;154263;-58
2022/03/28 05:11:38;;;;;;;;;;;;;;;21.64;45.10;102310.78;7281222;19;151990;-58
2022/03/28 05:14:05;;;;;;;;;;;;;;;21.71;44.66;102317.81;7285457;19;153371;-58
2022/03/28 05:16:32;;;;;;;;;;;;;;;21.78;44.52;102316.69;7283256;19;152184;-58
2022/03/28 05:19:02;;;;;;;;;;;;;;;21.82;44.52;102303.72;7280684;19;153489;-57
2022/03/28 05:21:28;;;;;;;;;;;;;;;21.88;44.52;102302.59;7281447;19;154350;-58
2022/03/28 05:23:55;;;;;;;;;;;;;;;21.94;44.87;102305.13;7282130;19;151901;-58
2022/03/28 05:26:22;;;;;;;;;;;;;;;22.00;44.66;102309.63;7281120;19;152608;-58
2022/03/28 05:28:49;;;;;;;;;;;;;;;22.06;44.41;102297.25;7279260;19;154317;-58
2022/03/28 05:31:15;;;;;;;;;;;;;;;22.11;45.01;102300.03;7282020;19;151983;-58
2022/03/28 05:33:42;;;;;;;;;;;;;;;22.17;44.87;102303.66;7277885;19;153764;-58
2022/03/28 05:36:09;;;;;;;;;;;;;;;22.24;44.68;102309.00;7286523;19;154689;-58
2022/03/28 05:38:37;;;;;;;;;;;;;;;22.30;44.58;102302.22;7279464;19;152896;-57
2022/03/28 05:41:05;;;;;;;;;;;;;;;22.33;44.26;102296.88;7278461;19;154403;-58
2022/03/28 05:43:33;;;;;;;;;;;;;;;22.39;44.13;102304.16;7278974;19;152106;-58
2022/03/28 05:46:00;;;;;;;;;;;;;;;22.45;44.19;102293.69;7280431;19;152874;-58
2022/03/28 05:48:27;;;;;;;;;;;;;;;22.50;44.15;102296.50;7278253;19;154997;-58
2022/03/28 05:50:54;;;;;;;;;;;;;;;22.54;43.94;102291.97;7282373;19;153654;-58
2022/03/28 05:53:20;;;;;;;;;;;;;;;22.59;43.57;102292.78;7278761;19;153555;-58
2022/03/28 05:55:48;;;;;;;;;;;;;;;22.63;43.44;102291.06;7278640;19;154226;-57
2022/03/28 05:58:15;;;;;;;;;;;;;;;22.68;43.23;102290.19;7287931;19;152130;-58
2022/03/28 06:00:42;;;;;;;;;;;;;;;22.75;43.16;102289.94;7281047;19;153274;-58
2022/03/28 06:03:08;;;;;;;;;;;;;;;22.79;43.21;102291.03;7278277;19;152248;-59
2022/03/28 06:05:55;;;;;;;;;;;;;;;22.83;43.44;102287.34;7281876;19;155263;-59
2022/03/28 06:08:22;;;;;;;;;;;;;;;22.87;42.91;102284.75;7278691;19;154287;-58
2022/03/28 06:10:48;;;;;;;;;;;;;;;22.91;42.84;102286.72;7279133;19;152070;-58
2022/03/28 06:13:17;;;;;;;;;;;;;;;22.96;43.53;102286.69;7279788;19;152767;-58
2022/03/28 06:15:47;;;;;;;;;;;;;;;23.00;43.42;102290.59;7280834;19;153567;-58
2022/03/28 06:18:14;;;;;;;;;;;;;;;23.02;43.23;102285.50;7281623;19;152341;-58
2022/03/28 06:20:41;;;;;;;;;;;;;;;23.06;42.98;102282.94;7285272;19;153217;-58
2022/03/28 06:23:09;;;;;;;;;;;;;;;23.10;43.03;102278.41;7278285;19;152127;-59
2022/03/28 06:25:36;;;;;;;;;;;;;;;23.08;41.39;102286.28;7280346;19;153003;-58
2022/03/28 06:28:02;;;;;;;;;;;;;;;23.02;40.73;102279.88;7280059;19;153513;-57
2022/03/28 06:30:30;;;;;;;;;;;;;;;22.99;40.41;102273.97;7282053;19;151834;-58
2022/03/28 06:32:57;;;;;;;;;;;;;;;22.95;40.02;102273.72;7281842;19;152649;-57
2022/03/28 06:35:23;;;;;;;;;;;;;;;22.91;39.67;102281.06;7279389;19;153224;-58
2022/03/28 06:37:53;;;;;;;;;;;;;;;22.71;37.55;102274.75;7281728;19;151835;-57
2022/03/28 06:40:20;;;;;;;;;;;;;;;22.61;38.50;102269.97;7279642;19;153350;-57
2022/03/28 06:42:47;;;;;;;;;;;;;;;22.67;38.19;102267.97;7287584;19;152484;-57
2022/03/28 06:45:15;;;;;;;;;;;;;;;22.69;38.08;102268.50;7282085;19;153836;-58
2022/03/28 06:47:51;;;;;;;;;;;;;;;22.70;38.22;102273.88;7276964;19;153364;-57
2022/03/28 06:50:19;;;;;;;;;;;;;;;22.67;38.15;102265.97;7279529;19;151581;-57
2022/03/28 06:52:46;;;;;;;;;;;;;;;22.69;38.41;102262.88;7278435;19;153210;-58
2022/03/28 06:55:13;;;;;;;;;;;;;;;22.66;38.75;102258.66;7277291;19;154006;-57
2022/03/28 06:57:40;;;;;;;;;;;;;;;22.48;38.25;102251.75;7281626;19;152741;-57
2022/03/28 07:00:10;;;;;;;;;;;;;;;22.43;38.26;102257.41;7280972;19;153428;-57
2022/03/28 07:02:37;;;;;;;;;;;;;;;22.41;38.38;102255.97;7284955;19;153430;-57
2022/03/28 07:05:05;;;;;;;;;;;;;;;22.38;37.92;102248.97;7279689;19;152787;-57
2022/03/28 07:07:41;;;;;;;;;;;;;;;22.35;38.28;102252.34;7280200;19;153814;-57
2022/03/28 07:10:09;;;;;;;;;;;;;;;22.34;38.29;102252.66;7281515;19;152095;-57
2022/03/28 07:12:36;;;;;;;;;;;;;;;22.32;38.21;102249.28;7278529;19;153727;-57
2022/03/28 07:15:04;;;;;;;;;;;;;;;22.27;38.08;102247.31;7275586;19;153331;-57
2022/03/28 07:17:33;;;;;;;;;;;;;;;22.25;38.23;102254.38;7280005;19;151858;-57
2022/03/28 07:20:00;;;;;;;;;;;;;;;22.24;38.03;102242.28;7279038;19;153809;-57
2022/03/28 07:22:27;;;;;;;;;;;;;;;22.16;38.28;102248.50;7277583;19;153749;-57
2022/03/28 07:24:54;;;;;;;;;;;;;;;22.14;38.05;102247.94;7287541;19;152087;-57
2022/03/28 07:27:21;;;;;;;;;;;;;;;22.09;38.23;102247.97;7277135;19;153453;-57
2022/03/28 07:29:48;;;;;;;;;;;;;;;22.13;38.29;102243.44;7277796;19;152748;-60
2022/03/28 07:32:15;;;;;;;;;;;;;;;22.10;38.63;102244.88;7279644;19;152121;-60
2022/03/28 07:34:45;;;;;;;;;;;;;;;22.14;38.75;102245.13;7275798;19;154350;-60
2022/03/28 07:37:13;;;;;;;;;;;;;;;22.05;39.04;102250.50;7275889;19;152100;-60
2022/03/28 07:39:40;;;;;;;;;;;;;;;22.01;38.79;102237.31;7276948;19;153353;-59
2022/03/28 07:42:07;;;;;;;;;;;;;;;21.95;38.84;102241.25;7277049;19;153700;-59
2022/03/28 07:44:35;;;;;;;;;;;;;;;21.91;38.96;102238.16;7279226;19;152191;-58
2022/03/28 07:47:04;;;;;;;;;;;;;;;21.88;38.77;102241.53;7283613;19;153433;-59
2022/03/28 07:49:31;;;;;;;;;;;;;;;21.86;38.67;102234.50;7278749;19;152309;-59
2022/03/28 07:51:58;;;;;;;;;;;;;;;21.83;38.60;102223.81;7279704;19;153480;-59
2022/03/28 07:54:25;;;;;;;;;;;;;;;21.79;38.46;102223.56;7275354;19;154332;-59
2022/03/28 07:56:54;;;;;;;;;;;;;;;21.76;38.66;102226.13;7279385;19;151953;-59
2022/03/28 07:59:23;;;;;;;;;;;;;;;21.73;38.31;102231.16;7277204;19;152864;-59
2022/03/28 08:01:51;;;;;;;;;;;;;;;21.69;38.66;102224.44;7274617;19;154469;-60
2022/03/28 08:04:23;;;;;;;;;;;;;;;21.68;38.77;102224.69;7276498;19;151847;-60
2022/03/28 08:06:50;;;;;;;;;;;;;;;21.64;38.63;102226.41;7278145;19;152869;-59
2022/03/28 08:09:17;;;;;;;;;;;;;;;21.61;38.85;102224.19;7283156;19;154834;-59
2022/03/28 08:11:44;;;;;;;;;;;;;;;21.55;38.64;102223.34;7276719;19;152874;-59
2022/03/28 08:14:11;;;;;;;;;;;;;;;21.55;38.68;102211.25;7273942;19;153444;-58
2022/03/28 08:16:38;;;;;;;;;;;;;;;21.50;38.84;102219.69;7278478;19;152310;-60
2022/03/28 08:19:05;;;;;;;;;;;;;;;21.47;38.50;102223.91;7275828;19;153226;-56
2022/03/28 08:21:32;;;;;;;;;;;;;;;21.42;38.78;102226.72;7277660;19;153938;-56
2022/03/28 08:23:59;;;;;;;;;;;;;;;21.41;39.00;102227.84;7278276;19;152152;-56
2022/03/28 08:26:26;;;;;;;;;;;;;;;21.39;38.87;102226.47;7275997;19;152876;-56
2022/03/28 08:28:53;;;;;;;;;;;;;;;21.35;39.00;102214.09;7274657;19;154626;-57
2022/03/28 08:31:20;;;;;;;;;;;;;;;21.33;38.93;102213.53;7283445;19;151800;-57
2022/03/28 08:33:47;;;;;;;;;;;;;;;21.31;39.19;102211.00;7274271;19;153342;-55
2022/03/28 08:36:14;;;;;;;;;;;;;;;21.30;39.00;102203.72;7275707;19;151783;-57
2022/03/28 08:38:41;;;;;;;;;;;;;;;21.32;39.10;102206.22;7278355;19;152834;-57
2022/03/28 08:41:13;;;;;;;;;;;;;;;21.37;39.11;102201.44;7272040;19;153263;-56
2022/03/28 08:43:41;;;;;;;;;;;;;;;21.39;39.17;102189.91;7277413;19;152422;-56
2022/03/28 08:46:08;;;;;;;;;;;;;;;21.41;39.22;102188.50;7275472;19;153275;-57
2022/03/28 08:48:40;;;;;;;;;;;;;;;21.41;39.35;102180.06;7274033;19;153577;-58
2022/03/28 08:51:08;;;;;;;;;;;;;;;21.43;38.87;102175.00;7285436;19;151864;-60
2022/03/28 08:53:38;;;;;;;;;;;;;;;21.45;38.73;102171.88;7274280;19;154239;-59
2022/03/28 08:56:07;;;;;;;;;;;;;;;21.45;38.81;102175.53;7271690;19;153799;-59
2022/03/28 08:58:54;;;;;;;;;;;;;;;21.45;39.13;102177.50;7275360;19;155432;-59
2022/03/28 09:01:22;;;;;;;;;;;;;;;21.46;38.72;102179.19;7273604;19;153508;-57
2022/03/28 09:03:50;;;;;;;;;;;;;;;21.46;39.16;102176.38;7275166;19;151679;-57
2022/03/28 09:06:26;;;;;;;;;;;;;;;21.47;38.98;102178.94;7277226;19;152778;-58
2022/03/28 09:08:53;;;;;;;;;;;;;;;21.46;38.75;102182.84;7276157;19;154530;-59
2022/03/28 09:11:20;;;;;;;;;;;;;;;21.44;39.11;102179.47;7277245;19;151740;-60
2022/03/28 09:13:47;;;;;;;;;;;;;;;21.46;38.63;102171.63;7280228;19;153121;-60
2022/03/28 09:16:18;;;;;;;;;;;;;;;21.46;39.02;102182.00;7273468;19;151859;-58
2022/03/28 09:18:54;;;;;;;;;;;;;;;21.45;39.05;102177.50;7274809;19;154002;-58
2022/03/28 09:21:23;;;;;;;;;;;;;;;21.45;38.89;102183.97;7274908;19;154147;-59
2022/03/28 09:23:53;;;;;;;;;;;;;;;21.45;38.60;102178.34;7274380;19;151635;-59
2022/03/28 09:26:22;;;;;;;;;;;;;;;21.44;39.00;102173.03;7275808;19;153229;-59
2022/03/28 09:28:50;;;;;;;;;;;;;;;21.45;39.06;102169.91;7273333;19;153341;-59
2022/03/28 09:31:18;;;;;;;;;;;;;;;21.45;38.58;102171.88;7275262;19;151551;-60
2022/03/28 09:33:55;;;;;;;;;;;;;;;21.43;38.56;102163.75;7276022;19;152520;-60
2022/03/28 09:36:31;;;;;;;;;;;;;;;21.40;39.06;102163.47;7276668;19;153317;-59
2022/03/28 09:39:01;;;;;;;;;;;;;;;21.40;38.75;102160.66;7273446;19;153630;-59
2022/03/28 09:41:28;;;;;;;;;;;;;;;21.40;38.80;102160.66;7271702;19;154217;-60
2022/03/28 09:43:55;;;;;;;;;;;;;;;21.36;38.58;102168.81;7275351;19;151810;-60
2022/03/28 09:46:25;;;;;;;;;;;;;;;21.40;38.97;102166.28;7277483;19;153393;-59
2022/03/28 09:48:53;;;;;;;;;;;;;;;21.36;38.81;102162.34;7276412;19;153392;-58
2022/03/28 09:51:21;;;;;;;;;;;;;;;21.35;38.87;102160.69;7277712;19;151589;-59
2022/03/28 09:53:49;;;;;;;;;;;;;;;21.35;39.03;102161.50;7279900;19;153297;-60
2022/03/28 09:56:16;;;;;;;;;;;;;;;21.34;38.87;102159.84;7281274;19;153401;-59
2022/03/28 09:58:46;;;;;;;;;;;;;;;21.34;38.67;102157.03;7292970;19;151688;-60
2022/03/28 10:01:13;;;;;;;;;;;;;;;21.35;38.96;102160.69;7279033;19;154426;-59
2022/03/28 10:03:43;;;;;;;;;;;;;;;21.34;38.93;102159.00;7281921;19;151878;-59
2022/03/28 10:06:10;;;;;;;;;;;;;;;21.32;38.74;102162.09;7282106;19;154100;-60
2022/03/28 10:08:38;;;;;;;;;;;;;;;21.32;39.06;102152.81;7281136;19;153532;-58
2022/03/28 10:11:05;;;;;;;;;;;;;;;21.34;38.68;102145.78;7280743;19;152819;-59
2022/03/28 10:13:32;;;;;;;;;;;;;;;21.32;38.72;102147.19;7277083;19;153494;-59
2022/03/28 10:16:01;;;;;;;;;;;;;;;21.33;39.12;102146.91;7276345;19;153571;-57
2022/03/28 10:18:32;;;;;;;;;;;;;;;21.35;38.87;102141.81;7281335;19;151910;-60
2022/03/28 10:21:02;;;;;;;;;;;;;;;21.31;38.73;102132.28;7285588;19;153165;-58
2022/03/28 10:23:35;;;;;;;;;;;;;;;21.35;39.07;102139.00;7281138;19;152034;-59
2022/03/28 10:26:04;;;;;;;;;;;;;;;21.33;39.11;102138.47;7280958;19;153409;-59
2022/03/28 10:28:31;;;;;;;;;;;;;;;21.32;38.66;102139.59;7278060;19;153792;-59
2022/03/28 10:31:08;;;;;;;;;;;;;;;21.30;38.72;102139.06;7281215;19;151993;-59
2022/03/28 10:33:55;;;;;;;;;;;;;;;21.32;38.94;102133.13;7281567;19;154762;-60
2022/03/28 10:36:24;;;;;;;;;;;;;;;21.30;38.94;102130.63;7275259;19;154484;-60
2022/03/28 10:38:51;;;;;;;;;;;;;;;21.32;39.09;102128.34;7279431;19;152550;-60
2022/03/28 10:41:19;;;;;;;;;;;;;;;21.29;38.71;102128.94;7277636;19;153476;-59
2022/03/28 10:43:47;;;;;;;;;;;;;;;21.27;39.18;102117.97;7287321;19;154313;-59
2022/03/28 10:46:14;;;;;;;;;;;;;;;21.27;38.76;102122.72;7278529;19;153520;-59
2022/03/28 10:48:44;;;;;;;;;;;;;;;21.30;39.11;102111.75;7276952;19;152631;-59
2022/03/28 10:51:13;;;;;;;;;;;;;;;21.32;38.68;102111.47;7280672;19;151636;-59
2022/03/28 10:53:40;;;;;;;;;;;;;;;21.31;38.74;102109.78;7279665;19;152751;-58
2022/03/28 10:56:11;;;;;;;;;;;;;;;21.34;38.60;102108.38;7275439;19;153529;-59
2022/03/28 10:58:39;;;;;;;;;;;;;;;21.29;38.77;102109.25;7278575;19;152656;-59
2022/03/28 11:01:12;;;;;;;;;;;;;;;21.30;38.90;102103.31;7277725;19;153584;-57
2022/03/28 11:03:49;;;;;;;;;;;;;;;21.30;39.10;102106.13;7284020;19;154444;-57
2022/03/28 11:06:17;;;;;;;;;;;;;;;21.31;39.00;102092.91;7276304;19;153011;-58
2022/03/28 11:08:47;;;;;;;;;;;;;;;21.29;39.04;102090.41;7277333;19;154594;-57
2022/03/28 11:11:16;;;;;;;;;;;;;;;21.30;39.13;102085.63;7277946;19;151986;-57
2022/03/28 11:13:43;;;;;;;;;;;;;;;21.27;38.79;102081.41;7275166;19;152651;-56
2022/03/28 11:16:17;;;;;;;;;;;;;;;21.27;38.75;102086.19;7275699;19;154686;-57
2022/03/28 11:18:44;;;;;;;;;;;;;;;21.28;39.15;102082.25;7277079;19;152032;-56
2022/03/28 11:21:11;;;;;;;;;;;;;;;21.26;38.77;102076.06;7278015;19;152663;-57
2022/03/28 11:23:39;;;;;;;;;;;;;;;21.26;39.22;102071.28;7278845;19;154093;-56
2022/03/28 11:26:07;;;;;;;;;;;;;;;21.27;39.22;102066.50;7287287;19;151929;-58
2022/03/28 11:28:38;;;;;;;;;;;;;;;21.26;38.68;102068.47;7278885;19;153460;-56
2022/03/28 11:31:07;;;;;;;;;;;;;;;21.28;39.00;102073.81;7279489;19;152324;-56
2022/03/28 11:33:36;;;;;;;;;;;;;;;21.23;39.20;102068.22;7277877;19;153584;-57
2022/03/28 11:36:04;;;;;;;;;;;;;;;21.21;39.33;102062.06;7276374;19;153880;-57
2022/03/28 11:38:32;;;;;;;;;;;;;;;21.20;39.34;102066.84;7277479;19;152283;-57
2022/03/28 11:41:01;;;;;;;;;;;;;;;21.19;39.09;102062.34;7278876;19;153946;-57
2022/03/28 11:43:29;;;;;;;;;;;;;;;21.19;38.94;102062.34;7275759;19;154406;-57
2022/03/28 11:45:57;;;;;;;;;;;;;;;21.21;39.15;102060.06;7279973;19;151988;-57
2022/03/28 11:48:25;;;;;;;;;;;;;;;21.21;38.89;102053.63;7282537;19;152189;-57
2022/03/28 11:50:54;;;;;;;;;;;;;;;21.21;39.33;102051.63;7279507;19;153015;-56
2022/03/28 11:53:21;;;;;;;;;;;;;;;21.22;39.14;102041.22;7278268;19;153756;-57
2022/03/28 11:55:49;;;;;;;;;;;;;;;21.23;38.91;102037.28;7276807;19;154417;-57
2022/03/28 11:58:19;;;;;;;;;;;;;;;21.23;39.01;102028.88;7277732;19;151763;-59
2022/03/28 12:00:48;;;;;;;;;;;;;;;21.23;39.00;102028.88;7276315;19;153269;-59
2022/03/28 12:03:16;;;;;;;;;;;;;;;21.24;38.88;102024.94;7276406;19;153967;-58
2022/03/28 12:05:44;;;;;;;;;;;;;;;21.25;39.00;102026.63;7276809;19;152037;-57
2022/03/28 12:08:13;;;;;;;;;;;;;;;21.23;39.28;102031.69;7276098;19;153563;-56
2022/03/28 12:10:42;;;;;;;;;;;;;;;21.15;38.63;102032.28;7282623;19;154350;-57
2022/03/28 12:13:10;;;;;;;;;;;;;;;21.10;38.22;102023.81;7273939;19;154162;-59
2022/03/28 12:15:39;;;;;;;;;;;;;;;21.05;38.17;102029.47;7275113;19;153950;-56
2022/03/28 12:18:08;;;;;;;;;;;;;;;21.02;37.72;102027.22;7278253;19;152242;-57
2022/03/28 12:20:38;;;;;;;;;;;;;;;20.97;37.91;102016.00;7277736;19;152724;-57
2022/03/28 12:23:06;;;;;;;;;;;;;;;20.89;37.96;102017.44;7277187;19;153750;-57
2022/03/28 12:25:43;;;;;;;;;;;;;;;20.88;38.07;102003.66;7278221;19;152401;-59
2022/03/28 12:28:12;;;;;;;;;;;;;;;20.81;38.07;101999.19;7279500;19;153849;-59
2022/03/28 12:30:41;;;;;;;;;;;;;;;20.79;38.02;101992.19;7274964;19;154522;-59